sensor_id;sensor_type;location;lat;lon;timestamp;pressure;altitude;pressure_sealevel;temperature;humidity
56789;BME280;42657;51.650;17.780;2022-11-25T00:01:25;100117.89;;;1.58;82.97
56789;BME280;42657;51.650;17.780;2022-11-25T00:04:27;100117.34;;;1.63;82.92
56789;BME280;42657;51.650;17.780;2022-11-25T00:07:28;100118.90;;;1.65;82.83
56789;BME280;42657;51.650;17.780;2022-11-25T00:10:30;100122.04;;;1.63;82.88
56789;BME280;42657;51.650;17.780;2022-11-25T00:13:32;100123.52;;;1.61;82.84
56789;BME280;42657;51.650;17.780;2022-11-25T00:16:33;100125.77;;;1.59;82.93
56789;BME280;42657;51.650;17.780;2022-11-25T00:19:35;100124.03;;;1.57;82.87
56789;BME280;42657;51.650;17.780;2022-11-25T00:22:36;100124.15;;;1.59;83.11
56789;BME280;42657;51.650;17.780;2022-11-25T00:25:38;100123.66;;;1.61;83.02
56789;BME280;42657;51.650;17.780;2022-11-25T00:28:41;100123.35;;;1.65;83.03
56789;BME280;42657;51.650;17.780;2022-11-25T00:31:44;100123.81;;;1.69;83.13
56789;BME280;42657;51.650;17.780;2022-11-25T00:34:46;100122.75;;;1.71;82.93
56789;BME280;42657;51.650;17.780;2022-11-25T00:37:47;100124.67;;;1.71;82.94
56789;BME280;42657;51.650;17.780;2022-11-25T00:40:51;100122.45;;;1.69;82.89
56789;BME280;42657;51.650;17.780;2022-11-25T00:43:52;100125.23;;;1.67;83.01
56789;BME280;42657;51.650;17.780;2022-11-25T00:46:54;100132.50;;;1.68;82.99
56789;BME280;42657;51.650;17.780;2022-11-25T00:49:56;100129.86;;;1.69;83.06
56789;BME280;42657;51.650;17.780;2022-11-25T00:52:57;100130.44;;;1.73;83.11
56789;BME280;42657;51.650;17.780;2022-11-25T00:56:02;100133.25;;;1.77;83.01
56789;BME280;42657;51.650;17.780;2022-11-25T00:59:04;100140.70;;;1.80;83.17
56789;BME280;42657;51.650;17.780;2022-11-25T01:02:06;100141.61;;;1.84;83.24
56789;BME280;42657;51.650;17.780;2022-11-25T01:05:08;100140.87;;;1.84;83.12
56789;BME280;42657;51.650;17.780;2022-11-25T01:08:09;100136.57;;;1.83;83.18
56789;BME280;42657;51.650;17.780;2022-11-25T01:11:13;100140.66;;;1.82;82.76
56789;BME280;42657;51.650;17.780;2022-11-25T01:14:15;100139.52;;;1.81;82.86
56789;BME280;42657;51.650;17.780;2022-11-25T01:17:17;100138.73;;;1.81;82.92
56789;BME280;42657;51.650;17.780;2022-11-25T01:20:18;100140.95;;;1.83;82.87
56789;BME280;42657;51.650;17.780;2022-11-25T01:23:20;100144.98;;;1.83;83.09
56789;BME280;42657;51.650;17.780;2022-11-25T01:26:23;100151.90;;;1.83;83.09
56789;BME280;42657;51.650;17.780;2022-11-25T01:29:24;100149.50;;;1.84;83.15
56789;BME280;42657;51.650;17.780;2022-11-25T01:32:26;100148.95;;;1.84;83.29
56789;BME280;42657;51.650;17.780;2022-11-25T01:35:27;100147.86;;;1.85;83.26
56789;BME280;42657;51.650;17.780;2022-11-25T01:38:29;100145.08;;;1.84;83.03
56789;BME280;42657;51.650;17.780;2022-11-25T01:41:33;100146.06;;;1.85;83.08
56789;BME280;42657;51.650;17.780;2022-11-25T01:44:38;100147.63;;;1.85;83.05
56789;BME280;42657;51.650;17.780;2022-11-25T01:47:41;100146.39;;;1.88;83.11
56789;BME280;42657;51.650;17.780;2022-11-25T01:50:44;100144.52;;;1.86;83.17
56789;BME280;42657;51.650;17.780;2022-11-25T01:53:47;100141.69;;;1.84;83.01
56789;BME280;42657;51.650;17.780;2022-11-25T01:56:54;100144.34;;;1.82;83.09
56789;BME280;42657;51.650;17.780;2022-11-25T01:59:59;100149.52;;;1.79;83.09
56789;BME280;42657;51.650;17.780;2022-11-25T02:03:03;100146.66;;;1.79;83.02
56789;BME280;42657;51.650;17.780;2022-11-25T02:06:12;100145.64;;;1.80;82.99
56789;BME280;42657;51.650;17.780;2022-11-25T02:09:17;100144.95;;;1.83;83.19
56789;BME280;42657;51.650;17.780;2022-11-25T02:12:19;100145.48;;;1.84;83.31
56789;BME280;42657;51.650;17.780;2022-11-25T02:15:21;100157.75;;;1.88;83.29
56789;BME280;42657;51.650;17.780;2022-11-25T02:18:25;100166.23;;;1.91;83.40
56789;BME280;42657;51.650;17.780;2022-11-25T02:21:33;100172.27;;;1.90;83.34
56789;BME280;42657;51.650;17.780;2022-11-25T02:24:50;100171.23;;;1.87;83.44
56789;BME280;42657;51.650;17.780;2022-11-25T02:28:02;100169.13;;;1.85;83.45
56789;BME280;42657;51.650;17.780;2022-11-25T02:31:06;100169.61;;;1.86;83.41
56789;BME280;42657;51.650;17.780;2022-11-25T02:34:08;100167.93;;;1.90;83.42
56789;BME280;42657;51.650;17.780;2022-11-25T02:37:09;100167.52;;;1.93;83.48
56789;BME280;42657;51.650;17.780;2022-11-25T02:40:12;100171.80;;;1.95;83.49
56789;BME280;42657;51.650;17.780;2022-11-25T02:43:15;100169.38;;;1.95;83.49
56789;BME280;42657;51.650;17.780;2022-11-25T02:46:20;100178.48;;;1.90;83.57
56789;BME280;42657;51.650;17.780;2022-11-25T02:49:21;100175.04;;;1.83;83.53
56789;BME280;42657;51.650;17.780;2022-11-25T02:52:23;100170.00;;;1.78;83.57
56789;BME280;42657;51.650;17.780;2022-11-25T02:55:24;100166.69;;;1.78;83.64
56789;BME280;42657;51.650;17.780;2022-11-25T02:58:26;100166.84;;;1.78;83.60
56789;BME280;42657;51.650;17.780;2022-11-25T03:01:28;100168.05;;;1.81;83.68
56789;BME280;42657;51.650;17.780;2022-11-25T03:04:44;100170.17;;;1.83;83.67
56789;BME280;42657;51.650;17.780;2022-11-25T03:07:45;100170.14;;;1.86;83.78
56789;BME280;42657;51.650;17.780;2022-11-25T03:10:47;100173.48;;;1.89;83.64
56789;BME280;42657;51.650;17.780;2022-11-25T03:13:48;100174.19;;;1.88;83.63
56789;BME280;42657;51.650;17.780;2022-11-25T03:16:50;100174.02;;;1.86;83.88
56789;BME280;42657;51.650;17.780;2022-11-25T03:19:51;100173.92;;;1.83;83.83
56789;BME280;42657;51.650;17.780;2022-11-25T03:22:53;100174.95;;;1.81;83.91
56789;BME280;42657;51.650;17.780;2022-11-25T03:25:55;100178.27;;;1.80;83.92
56789;BME280;42657;51.650;17.780;2022-11-25T03:28:57;100176.79;;;1.82;83.95
56789;BME280;42657;51.650;17.780;2022-11-25T03:31:58;100177.83;;;1.86;84.05
56789;BME280;42657;51.650;17.780;2022-11-25T03:35:00;100176.98;;;1.92;83.96
56789;BME280;42657;51.650;17.780;2022-11-25T03:38:02;100173.71;;;1.98;84.09
56789;BME280;42657;51.650;17.780;2022-11-25T03:41:03;100171.42;;;2.04;84.18
56789;BME280;42657;51.650;17.780;2022-11-25T03:44:05;100173.63;;;2.07;84.15
56789;BME280;42657;51.650;17.780;2022-11-25T03:47:07;100172.70;;;2.06;83.98
56789;BME280;42657;51.650;17.780;2022-11-25T03:50:10;100171.21;;;2.03;84.23
56789;BME280;42657;51.650;17.780;2022-11-25T03:53:12;100171.17;;;2.00;84.19
56789;BME280;42657;51.650;17.780;2022-11-25T03:56:14;100176.77;;;2.02;84.23
56789;BME280;42657;51.650;17.780;2022-11-25T03:59:15;100174.86;;;2.06;84.22
56789;BME280;42657;51.650;17.780;2022-11-25T04:02:17;100175.45;;;2.12;84.29
56789;BME280;42657;51.650;17.780;2022-11-25T04:05:18;100179.41;;;2.17;84.37
56789;BME280;42657;51.650;17.780;2022-11-25T04:08:21;100176.17;;;2.17;84.25
56789;BME280;42657;51.650;17.780;2022-11-25T04:11:23;100179.29;;;2.15;84.34
56789;BME280;42657;51.650;17.780;2022-11-25T04:14:24;100183.04;;;2.11;84.20
56789;BME280;42657;51.650;17.780;2022-11-25T04:17:26;100185.48;;;2.06;84.33
56789;BME280;42657;51.650;17.780;2022-11-25T04:20:28;100183.20;;;2.03;84.46
56789;BME280;42657;51.650;17.780;2022-11-25T04:23:30;100192.48;;;2.04;84.47
56789;BME280;42657;51.650;17.780;2022-11-25T04:26:31;100189.51;;;2.07;84.48
56789;BME280;42657;51.650;17.780;2022-11-25T04:29:33;100184.27;;;2.06;84.47
56789;BME280;42657;51.650;17.780;2022-11-25T04:32:36;100188.08;;;2.06;84.54
56789;BME280;42657;51.650;17.780;2022-11-25T04:35:37;100187.02;;;2.07;84.53
56789;BME280;42657;51.650;17.780;2022-11-25T04:38:39;100186.40;;;2.05;84.36
56789;BME280;42657;51.650;17.780;2022-11-25T04:41:40;100193.00;;;1.99;84.39
56789;BME280;42657;51.650;17.780;2022-11-25T04:44:42;100189.54;;;1.96;84.45
56789;BME280;42657;51.650;17.780;2022-11-25T04:47:44;100190.71;;;1.96;84.35
56789;BME280;42657;51.650;17.780;2022-11-25T04:50:45;100187.94;;;1.98;84.40
56789;BME280;42657;51.650;17.780;2022-11-25T04:53:47;100191.35;;;2.02;84.26
56789;BME280;42657;51.650;17.780;2022-11-25T04:56:48;100195.27;;;2.03;84.25
56789;BME280;42657;51.650;17.780;2022-11-25T04:59:50;100193.27;;;2.05;84.25
56789;BME280;42657;51.650;17.780;2022-11-25T05:02:52;100196.22;;;2.07;84.31
56789;BME280;42657;51.650;17.780;2022-11-25T05:05:53;100197.61;;;2.06;84.16
56789;BME280;42657;51.650;17.780;2022-11-25T05:08:55;100194.83;;;2.05;84.12
56789;BME280;42657;51.650;17.780;2022-11-25T05:11:56;100193.48;;;2.06;84.10
56789;BME280;42657;51.650;17.780;2022-11-25T05:14:58;100194.53;;;2.06;84.24
56789;BME280;42657;51.650;17.780;2022-11-25T05:17:59;100195.10;;;2.08;84.30
56789;BME280;42657;51.650;17.780;2022-11-25T05:21:01;100198.94;;;2.09;84.25
56789;BME280;42657;51.650;17.780;2022-11-25T05:24:03;100195.20;;;2.07;84.15
56789;BME280;42657;51.650;17.780;2022-11-25T05:27:05;100198.21;;;2.04;84.17
56789;BME280;42657;51.650;17.780;2022-11-25T05:30:07;100202.95;;;2.00;84.23
56789;BME280;42657;51.650;17.780;2022-11-25T05:33:09;100201.84;;;1.97;84.40
56789;BME280;42657;51.650;17.780;2022-11-25T05:36:11;100199.63;;;1.96;84.47
56789;BME280;42657;51.650;17.780;2022-11-25T05:39:12;100196.93;;;1.96;84.32
56789;BME280;42657;51.650;17.780;2022-11-25T05:42:14;100194.91;;;1.93;84.33
56789;BME280;42657;51.650;17.780;2022-11-25T05:45:15;100199.91;;;1.91;84.18
56789;BME280;42657;51.650;17.780;2022-11-25T05:48:17;100194.75;;;1.85;84.32
56789;BME280;42657;51.650;17.780;2022-11-25T05:51:18;100201.11;;;1.80;84.28
56789;BME280;42657;51.650;17.780;2022-11-25T05:54:20;100201.06;;;1.77;84.45
56789;BME280;42657;51.650;17.780;2022-11-25T05:57:21;100202.70;;;1.78;84.52
56789;BME280;42657;51.650;17.780;2022-11-25T06:00:23;100203.19;;;1.76;84.42
56789;BME280;42657;51.650;17.780;2022-11-25T06:03:28;100203.14;;;1.74;84.54
56789;BME280;42657;51.650;17.780;2022-11-25T06:06:30;100204.61;;;1.72;84.68
56789;BME280;42657;51.650;17.780;2022-11-25T06:09:32;100210.58;;;1.73;84.60
56789;BME280;42657;51.650;17.780;2022-11-25T06:12:33;100214.09;;;1.73;84.56
56789;BME280;42657;51.650;17.780;2022-11-25T06:15:43;100218.21;;;1.75;84.79
56789;BME280;42657;51.650;17.780;2022-11-25T06:18:45;100219.98;;;1.79;84.64
56789;BME280;42657;51.650;17.780;2022-11-25T06:21:46;100223.06;;;1.82;84.86
56789;BME280;42657;51.650;17.780;2022-11-25T06:24:48;100223.69;;;1.87;84.86
56789;BME280;42657;51.650;17.780;2022-11-25T06:27:50;100226.51;;;1.89;84.83
56789;BME280;42657;51.650;17.780;2022-11-25T06:30:51;100236.34;;;1.94;85.01
56789;BME280;42657;51.650;17.780;2022-11-25T06:33:53;100242.65;;;2.00;85.14
56789;BME280;42657;51.650;17.780;2022-11-25T06:36:54;100238.69;;;2.04;84.86
56789;BME280;42657;51.650;17.780;2022-11-25T06:39:56;100240.50;;;2.11;84.96
56789;BME280;42657;51.650;17.780;2022-11-25T06:42:58;100247.59;;;2.19;85.07
56789;BME280;42657;51.650;17.780;2022-11-25T06:46:01;100250.26;;;2.27;84.97
56789;BME280;42657;51.650;17.780;2022-11-25T06:49:03;100251.54;;;2.35;85.04
56789;BME280;42657;51.650;17.780;2022-11-25T06:52:05;100248.05;;;2.41;84.89
56789;BME280;42657;51.650;17.780;2022-11-25T06:55:07;100247.86;;;2.41;84.69
56789;BME280;42657;51.650;17.780;2022-11-25T06:58:08;100245.32;;;2.43;84.78
56789;BME280;42657;51.650;17.780;2022-11-25T07:01:18;100247.13;;;2.48;84.77
56789;BME280;42657;51.650;17.780;2022-11-25T07:04:20;100246.88;;;2.53;84.77
56789;BME280;42657;51.650;17.780;2022-11-25T07:07:22;100252.89;;;2.61;84.84
56789;BME280;42657;51.650;17.780;2022-11-25T07:10:23;100257.07;;;2.66;84.79
56789;BME280;42657;51.650;17.780;2022-11-25T07:13:25;100261.98;;;2.67;84.71
56789;BME280;42657;51.650;17.780;2022-11-25T07:16:27;100267.13;;;2.72;84.81
56789;BME280;42657;51.650;17.780;2022-11-25T07:19:28;100272.90;;;2.76;84.57
56789;BME280;42657;51.650;17.780;2022-11-25T07:22:30;100273.20;;;2.79;84.74
56789;BME280;42657;51.650;17.780;2022-11-25T07:25:32;100270.77;;;2.84;84.75
56789;BME280;42657;51.650;17.780;2022-11-25T07:28:34;100277.39;;;2.87;84.59
56789;BME280;42657;51.650;17.780;2022-11-25T07:31:40;100283.16;;;2.90;84.60
56789;BME280;42657;51.650;17.780;2022-11-25T07:34:42;100282.60;;;2.91;84.65
56789;BME280;42657;51.650;17.780;2022-11-25T07:37:44;100285.34;;;2.96;84.79
56789;BME280;42657;51.650;17.780;2022-11-25T07:40:45;100287.92;;;3.01;84.70
56789;BME280;42657;51.650;17.780;2022-11-25T07:43:53;100281.30;;;3.05;84.49
56789;BME280;42657;51.650;17.780;2022-11-25T07:46:55;100285.69;;;3.09;84.56
56789;BME280;42657;51.650;17.780;2022-11-25T07:49:56;100288.93;;;3.10;84.64
56789;BME280;42657;51.650;17.780;2022-11-25T07:52:58;100292.08;;;3.10;84.61
56789;BME280;42657;51.650;17.780;2022-11-25T07:56:00;100296.61;;;3.12;84.62
56789;BME280;42657;51.650;17.780;2022-11-25T07:59:02;100298.74;;;3.12;84.71
56789;BME280;42657;51.650;17.780;2022-11-25T08:02:04;100301.40;;;3.14;84.45
56789;BME280;42657;51.650;17.780;2022-11-25T08:05:06;100303.08;;;3.20;84.72
56789;BME280;42657;51.650;17.780;2022-11-25T08:08:08;100305.92;;;3.29;84.74
56789;BME280;42657;51.650;17.780;2022-11-25T08:11:15;100307.11;;;3.33;84.58
56789;BME280;42657;51.650;17.780;2022-11-25T08:14:17;100305.09;;;3.38;84.67
56789;BME280;42657;51.650;17.780;2022-11-25T08:17:19;100303.48;;;3.43;84.63
56789;BME280;42657;51.650;17.780;2022-11-25T08:20:21;100304.32;;;3.51;84.52
56789;BME280;42657;51.650;17.780;2022-11-25T08:23:22;100306.89;;;3.65;84.44
56789;BME280;42657;51.650;17.780;2022-11-25T08:26:29;100301.85;;;3.76;84.25
56789;BME280;42657;51.650;17.780;2022-11-25T08:29:31;100302.74;;;3.89;84.20
56789;BME280;42657;51.650;17.780;2022-11-25T08:32:39;100301.50;;;3.98;83.95
56789;BME280;42657;51.650;17.780;2022-11-25T08:35:41;100297.54;;;4.05;83.89
56789;BME280;42657;51.650;17.780;2022-11-25T08:38:44;100302.84;;;4.17;83.76
56789;BME280;42657;51.650;17.780;2022-11-25T08:41:46;100306.64;;;4.27;83.79
56789;BME280;42657;51.650;17.780;2022-11-25T08:44:52;100306.74;;;4.36;83.68
56789;BME280;42657;51.650;17.780;2022-11-25T08:47:54;100317.89;;;4.40;83.35
56789;BME280;42657;51.650;17.780;2022-11-25T08:50:55;100318.89;;;4.39;83.28
56789;BME280;42657;51.650;17.780;2022-11-25T08:53:57;100314.37;;;4.39;83.13
56789;BME280;42657;51.650;17.780;2022-11-25T08:56:59;100315.77;;;4.43;83.17
56789;BME280;42657;51.650;17.780;2022-11-25T09:00:00;100315.09;;;4.53;83.06
56789;BME280;42657;51.650;17.780;2022-11-25T09:03:02;100317.19;;;4.58;83.04
56789;BME280;42657;51.650;17.780;2022-11-25T09:06:05;100317.82;;;4.63;82.87
56789;BME280;42657;51.650;17.780;2022-11-25T09:09:06;100320.38;;;4.61;82.80
56789;BME280;42657;51.650;17.780;2022-11-25T09:12:08;100320.92;;;4.63;82.86
56789;BME280;42657;51.650;17.780;2022-11-25T09:15:10;100315.14;;;4.68;82.87
56789;BME280;42657;51.650;17.780;2022-11-25T09:18:11;100312.98;;;4.72;82.84
56789;BME280;42657;51.650;17.780;2022-11-25T09:21:14;100319.59;;;4.73;82.54
56789;BME280;42657;51.650;17.780;2022-11-25T09:24:16;100327.80;;;4.73;82.56
56789;BME280;42657;51.650;17.780;2022-11-25T09:27:18;100332.34;;;4.71;82.34
56789;BME280;42657;51.650;17.780;2022-11-25T09:30:20;100330.17;;;4.70;82.50
56789;BME280;42657;51.650;17.780;2022-11-25T09:33:22;100323.05;;;4.76;82.61
56789;BME280;42657;51.650;17.780;2022-11-25T09:36:23;100323.98;;;4.85;82.22
56789;BME280;42657;51.650;17.780;2022-11-25T09:39:25;100328.27;;;4.92;81.96
56789;BME280;42657;51.650;17.780;2022-11-25T09:42:48;100327.80;;;4.94;82.05
56789;BME280;42657;51.650;17.780;2022-11-25T09:45:57;100330.06;;;4.93;82.00
56789;BME280;42657;51.650;17.780;2022-11-25T09:53:06;100330.73;;;5.07;81.91
56789;BME280;42657;51.650;17.780;2022-11-25T09:56:02;100329.72;;;5.22;81.68
56789;BME280;42657;51.650;17.780;2022-11-25T09:59:17;100329.98;;;5.31;81.61
56789;BME280;42657;51.650;17.780;2022-11-25T10:02:34;100326.29;;;5.37;81.46
56789;BME280;42657;51.650;17.780;2022-11-25T10:05:42;100325.81;;;5.51;81.47
56789;BME280;42657;51.650;17.780;2022-11-25T10:08:48;100321.34;;;5.62;81.46
56789;BME280;42657;51.650;17.780;2022-11-25T10:14:57;100323.20;;;5.62;80.67
56789;BME280;42657;51.650;17.780;2022-11-25T10:18:04;100329.02;;;5.78;80.78
56789;BME280;42657;51.650;17.780;2022-11-25T10:21:08;100331.67;;;5.89;80.61
56789;BME280;42657;51.650;17.780;2022-11-25T10:24:13;100329.60;;;5.94;80.78
56789;BME280;42657;51.650;17.780;2022-11-25T10:27:25;100331.05;;;5.97;80.57
56789;BME280;42657;51.650;17.780;2022-11-25T10:30:39;100330.23;;;5.97;80.72
56789;BME280;42657;51.650;17.780;2022-11-25T10:33:49;100324.33;;;6.00;80.66
56789;BME280;42657;51.650;17.780;2022-11-25T10:36:51;100315.90;;;5.97;80.25
56789;BME280;42657;51.650;17.780;2022-11-25T10:39:54;100319.22;;;6.00;80.35
56789;BME280;42657;51.650;17.780;2022-11-25T10:42:55;100317.77;;;6.05;80.32
56789;BME280;42657;51.650;17.780;2022-11-25T10:46:07;100317.43;;;6.05;80.21
56789;BME280;42657;51.650;17.780;2022-11-25T10:52:55;100325.08;;;6.05;79.97
56789;BME280;42657;51.650;17.780;2022-11-25T10:56:00;100326.70;;;6.02;79.99
56789;BME280;42657;51.650;17.780;2022-11-25T10:59:12;100326.02;;;6.13;80.16
56789;BME280;42657;51.650;17.780;2022-11-25T11:02:22;100328.58;;;6.30;80.17
56789;BME280;42657;51.650;17.780;2022-11-25T11:05:27;100328.18;;;6.44;80.07
56789;BME280;42657;51.650;17.780;2022-11-25T11:08:38;100325.79;;;6.53;79.98
56789;BME280;42657;51.650;17.780;2022-11-25T11:11:47;100329.40;;;6.59;79.88
56789;BME280;42657;51.650;17.780;2022-11-25T11:14:50;100326.02;;;6.56;79.53
56789;BME280;42657;51.650;17.780;2022-11-25T11:17:57;100330.15;;;6.56;79.45
56789;BME280;42657;51.650;17.780;2022-11-25T11:20:59;100332.22;;;6.60;79.65
56789;BME280;42657;51.650;17.780;2022-11-25T11:24:02;100334.01;;;6.57;79.43
56789;BME280;42657;51.650;17.780;2022-11-25T11:27:21;100331.14;;;6.53;79.45
56789;BME280;42657;51.650;17.780;2022-11-25T11:30:27;100333.86;;;6.59;79.20
56789;BME280;42657;51.650;17.780;2022-11-25T11:33:34;100332.92;;;6.66;79.39
56789;BME280;42657;51.650;17.780;2022-11-25T11:50:32;100323.45;;;6.94;78.95
56789;BME280;42657;51.650;17.780;2022-11-25T11:56:43;100327.11;;;6.90;78.82
56789;BME280;42657;51.650;17.780;2022-11-25T11:59:51;100329.92;;;6.84;78.82
56789;BME280;42657;51.650;17.780;2022-11-25T12:03:10;100332.56;;;6.82;78.99
56789;BME280;42657;51.650;17.780;2022-11-25T12:06:14;100334.84;;;6.79;78.86
56789;BME280;42657;51.650;17.780;2022-11-25T12:09:19;100334.20;;;6.82;79.12
56789;BME280;42657;51.650;17.780;2022-11-25T12:12:32;100340.00;;;6.85;79.05
56789;BME280;42657;51.650;17.780;2022-11-25T12:19:00;100336.82;;;6.86;79.08
56789;BME280;42657;51.650;17.780;2022-11-25T12:22:06;100336.88;;;6.92;78.91
56789;BME280;42657;51.650;17.780;2022-11-25T12:25:20;100334.23;;;6.93;78.62
56789;BME280;42657;51.650;17.780;2022-11-25T12:28:36;100330.05;;;6.94;78.62
56789;BME280;42657;51.650;17.780;2022-11-25T12:31:51;100337.66;;;6.94;78.86
56789;BME280;42657;51.650;17.780;2022-11-25T12:38:16;100337.86;;;6.93;79.14
56789;BME280;42657;51.650;17.780;2022-11-25T12:41:36;100334.95;;;6.95;78.87
56789;BME280;42657;51.650;17.780;2022-11-25T12:45:02;100331.50;;;7.04;78.99
56789;BME280;42657;51.650;17.780;2022-11-25T12:48:09;100335.90;;;7.04;79.00
56789;BME280;42657;51.650;17.780;2022-11-25T13:01:43;100332.61;;;6.65;79.22
56789;BME280;42657;51.650;17.780;2022-11-25T13:09:02;100335.08;;;6.52;79.59
56789;BME280;42657;51.650;17.780;2022-11-25T13:15:47;100338.84;;;6.42;79.83
56789;BME280;42657;51.650;17.780;2022-11-25T13:18:53;100340.48;;;6.42;79.90
56789;BME280;42657;51.650;17.780;2022-11-25T13:22:00;100339.73;;;6.40;79.94
56789;BME280;42657;51.650;17.780;2022-11-25T13:25:02;100336.09;;;6.38;80.28
56789;BME280;42657;51.650;17.780;2022-11-25T13:28:22;100338.89;;;6.38;80.25
56789;BME280;42657;51.650;17.780;2022-11-25T13:31:31;100339.92;;;6.34;80.28
56789;BME280;42657;51.650;17.780;2022-11-25T13:34:33;100343.18;;;6.32;80.56
56789;BME280;42657;51.650;17.780;2022-11-25T13:37:37;100347.08;;;6.29;80.57
56789;BME280;42657;51.650;17.780;2022-11-25T13:40:39;100348.84;;;6.27;80.63
56789;BME280;42657;51.650;17.780;2022-11-25T13:44:20;100354.19;;;6.24;80.67
56789;BME280;42657;51.650;17.780;2022-11-25T13:50:29;100352.09;;;6.17;80.85
56789;BME280;42657;51.650;17.780;2022-11-25T13:53:32;100356.95;;;6.14;80.82
56789;BME280;42657;51.650;17.780;2022-11-25T13:56:36;100359.89;;;6.09;81.03
56789;BME280;42657;51.650;17.780;2022-11-25T14:02:43;100364.88;;;6.11;81.27
56789;BME280;42657;51.650;17.780;2022-11-25T14:09:48;100369.88;;;6.04;81.35
56789;BME280;42657;51.650;17.780;2022-11-25T14:23:52;100376.46;;;6.04;81.55
56789;BME280;42657;51.650;17.780;2022-11-25T14:26:59;100376.47;;;6.07;81.79
56789;BME280;42657;51.650;17.780;2022-11-25T14:30:07;100378.83;;;6.10;81.78
56789;BME280;42657;51.650;17.780;2022-11-25T14:33:11;100379.81;;;6.09;81.72
56789;BME280;42657;51.650;17.780;2022-11-25T14:36:28;100382.09;;;6.12;81.67
56789;BME280;42657;51.650;17.780;2022-11-25T14:39:48;100383.41;;;6.14;81.70
56789;BME280;42657;51.650;17.780;2022-11-25T14:42:51;100383.75;;;6.11;81.56
56789;BME280;42657;51.650;17.780;2022-11-25T14:46:17;100385.06;;;6.08;81.62
56789;BME280;42657;51.650;17.780;2022-11-25T14:49:19;100390.52;;;6.02;81.83
56789;BME280;42657;51.650;17.780;2022-11-25T14:52:31;100392.44;;;5.98;81.66
56789;BME280;42657;51.650;17.780;2022-11-25T14:55:34;100392.80;;;5.95;81.84
56789;BME280;42657;51.650;17.780;2022-11-25T14:58:47;100392.84;;;5.94;81.77
56789;BME280;42657;51.650;17.780;2022-11-25T15:01:52;100396.08;;;5.92;81.91
56789;BME280;42657;51.650;17.780;2022-11-25T15:05:22;100401.92;;;5.87;81.95
56789;BME280;42657;51.650;17.780;2022-11-25T15:08:23;100404.19;;;5.84;81.95
56789;BME280;42657;51.650;17.780;2022-11-25T15:11:28;100403.39;;;5.82;82.13
56789;BME280;42657;51.650;17.780;2022-11-25T15:14:40;100405.31;;;5.82;82.18
56789;BME280;42657;51.650;17.780;2022-11-25T15:17:43;100403.75;;;5.82;82.04
56789;BME280;42657;51.650;17.780;2022-11-25T15:20:47;100402.95;;;5.81;82.21
56789;BME280;42657;51.650;17.780;2022-11-25T15:23:50;100401.06;;;5.81;82.26
56789;BME280;42657;51.650;17.780;2022-11-25T15:26:53;100401.61;;;5.82;82.37
56789;BME280;42657;51.650;17.780;2022-11-25T15:29:56;100404.65;;;5.83;82.29
56789;BME280;42657;51.650;17.780;2022-11-25T15:32:58;100405.82;;;5.86;82.29
56789;BME280;42657;51.650;17.780;2022-11-25T15:36:00;100404.71;;;5.88;82.21
56789;BME280;42657;51.650;17.780;2022-11-25T15:42:25;100411.22;;;5.88;82.32
56789;BME280;42657;51.650;17.780;2022-11-25T15:45:33;100410.54;;;5.87;82.35
56789;BME280;42657;51.650;17.780;2022-11-25T15:48:43;100413.03;;;5.88;82.43
56789;BME280;42657;51.650;17.780;2022-11-25T15:52:06;100409.89;;;5.92;82.51
56789;BME280;42657;51.650;17.780;2022-11-25T15:58:28;100412.60;;;5.89;82.34
56789;BME280;42657;51.650;17.780;2022-11-25T16:01:30;100414.31;;;5.87;82.56
56789;BME280;42657;51.650;17.780;2022-11-25T16:04:31;100411.05;;;5.85;82.54
56789;BME280;42657;51.650;17.780;2022-11-25T16:07:33;100413.48;;;5.88;82.72
56789;BME280;42657;51.650;17.780;2022-11-25T16:13:47;100415.48;;;5.93;82.85
56789;BME280;42657;51.650;17.780;2022-11-25T16:16:49;100414.52;;;5.91;82.70
56789;BME280;42657;51.650;17.780;2022-11-25T16:19:51;100416.67;;;5.86;82.80
56789;BME280;42657;51.650;17.780;2022-11-25T16:22:52;100413.48;;;5.84;82.91
56789;BME280;42657;51.650;17.780;2022-11-25T16:26:01;100416.17;;;5.85;83.03
56789;BME280;42657;51.650;17.780;2022-11-25T16:29:13;100419.41;;;5.88;83.14
56789;BME280;42657;51.650;17.780;2022-11-25T16:32:23;100420.38;;;5.90;83.08
56789;BME280;42657;51.650;17.780;2022-11-25T16:35:25;100422.60;;;5.93;83.06
56789;BME280;42657;51.650;17.780;2022-11-25T16:38:27;100429.26;;;5.95;83.12
56789;BME280;42657;51.650;17.780;2022-11-25T16:41:28;100428.55;;;5.94;83.21
56789;BME280;42657;51.650;17.780;2022-11-25T16:44:32;100434.08;;;5.90;83.26
56789;BME280;42657;51.650;17.780;2022-11-25T16:47:34;100434.03;;;5.90;83.26
56789;BME280;42657;51.650;17.780;2022-11-25T16:50:36;100432.03;;;5.92;83.21
56789;BME280;42657;51.650;17.780;2022-11-25T16:53:38;100430.01;;;5.92;83.12
56789;BME280;42657;51.650;17.780;2022-11-25T16:56:41;100430.39;;;5.95;83.31
56789;BME280;42657;51.650;17.780;2022-11-25T16:59:45;100430.71;;;5.96;83.14
56789;BME280;42657;51.650;17.780;2022-11-25T17:02:48;100429.07;;;5.99;83.19
56789;BME280;42657;51.650;17.780;2022-11-25T17:05:50;100430.08;;;6.00;83.33
56789;BME280;42657;51.650;17.780;2022-11-25T17:08:51;100433.47;;;5.98;83.17
56789;BME280;42657;51.650;17.780;2022-11-25T17:11:53;100435.65;;;5.96;83.21
56789;BME280;42657;51.650;17.780;2022-11-25T17:14:54;100438.63;;;5.96;83.22
56789;BME280;42657;51.650;17.780;2022-11-25T17:17:56;100435.86;;;5.98;83.33
56789;BME280;42657;51.650;17.780;2022-11-25T17:20:58;100440.93;;;6.02;83.34
56789;BME280;42657;51.650;17.780;2022-11-25T17:24:08;100445.39;;;6.03;83.42
56789;BME280;42657;51.650;17.780;2022-11-25T17:27:22;100445.14;;;6.04;83.15